sensor_id;sensor_type;location;lat;lon;timestamp;P1;durP1;ratioP1;P2;durP2;ratioP2
53034;SDS011;38923;53.236;6.506;2022-08-01T00:00:25;7.72;;;3.95;;
53034;SDS011;38923;53.236;6.506;2022-08-01T00:02:51;10.02;;;4.05;;
53034;SDS011;38923;53.236;6.506;2022-08-01T00:05:17;6.18;;;3.80;;
53034;SDS011;38923;53.236;6.506;2022-08-01T00:07:42;6.43;;;3.67;;
53034;SDS011;38923;53.236;6.506;2022-08-01T00:10:12;8.48;;;4.50;;
53034;SDS011;38923;53.236;6.506;2022-08-01T00:12:40;6.03;;;3.80;;
53034;SDS011;38923;53.236;6.506;2022-08-01T00:15:08;6.60;;;3.80;;
53034;SDS011;38923;53.236;6.506;2022-08-01T00:17:35;5.05;;;3.72;;
53034;SDS011;38923;53.236;6.506;2022-08-01T00:20:02;3.97;;;3.10;;
53034;SDS011;38923;53.236;6.506;2022-08-01T00:22:33;7.75;;;3.60;;
53034;SDS011;38923;53.236;6.506;2022-08-01T00:24:59;7.35;;;3.75;;
53034;SDS011;38923;53.236;6.506;2022-08-01T00:27:25;7.53;;;3.72;;
53034;SDS011;38923;53.236;6.506;2022-08-01T00:29:51;7.70;;;4.35;;
53034;SDS011;38923;53.236;6.506;2022-08-01T00:32:16;7.75;;;4.18;;
53034;SDS011;38923;53.236;6.506;2022-08-01T00:34:42;11.40;;;5.07;;
53034;SDS011;38923;53.236;6.506;2022-08-01T00:37:08;9.90;;;5.15;;
53034;SDS011;38923;53.236;6.506;2022-08-01T00:39:34;10.48;;;5.28;;
53034;SDS011;38923;53.236;6.506;2022-08-01T00:42:00;7.80;;;5.25;;
53034;SDS011;38923;53.236;6.506;2022-08-01T00:44:31;10.82;;;5.13;;
53034;SDS011;38923;53.236;6.506;2022-08-01T00:46:57;8.48;;;4.95;;
53034;SDS011;38923;53.236;6.506;2022-08-01T00:49:23;9.68;;;4.15;;
53034;SDS011;38923;53.236;6.506;2022-08-01T00:51:48;8.20;;;4.07;;
53034;SDS011;38923;53.236;6.506;2022-08-01T00:54:15;10.52;;;3.97;;
53034;SDS011;38923;53.236;6.506;2022-08-01T00:56:40;7.75;;;3.78;;
53034;SDS011;38923;53.236;6.506;2022-08-01T00:59:06;6.18;;;3.40;;
53034;SDS011;38923;53.236;6.506;2022-08-01T01:01:33;6.25;;;3.03;;
53034;SDS011;38923;53.236;6.506;2022-08-01T01:04:00;8.52;;;2.90;;
53034;SDS011;38923;53.236;6.506;2022-08-01T01:06:42;7.82;;;3.35;;
53034;SDS011;38923;53.236;6.506;2022-08-01T01:09:39;8.68;;;3.45;;
53034;SDS011;38923;53.236;6.506;2022-08-01T01:17:31;10.75;;;2.90;;
53034;SDS011;38923;53.236;6.506;2022-08-01T01:20:11;9.20;;;2.60;;
53034;SDS011;38923;53.236;6.506;2022-08-01T01:25:08;8.18;;;2.83;;
53034;SDS011;38923;53.236;6.506;2022-08-01T01:30:31;8.85;;;3.53;;
53034;SDS011;38923;53.236;6.506;2022-08-01T01:33:02;7.53;;;3.05;;
53034;SDS011;38923;53.236;6.506;2022-08-01T01:35:34;8.80;;;3.10;;
53034;SDS011;38923;53.236;6.506;2022-08-01T01:38:22;6.72;;;2.90;;
53034;SDS011;38923;53.236;6.506;2022-08-01T01:40:52;5.07;;;2.28;;
53034;SDS011;38923;53.236;6.506;2022-08-01T01:43:18;10.75;;;2.50;;
53034;SDS011;38923;53.236;6.506;2022-08-01T01:45:46;12.85;;;2.60;;
53034;SDS011;38923;53.236;6.506;2022-08-01T01:48:13;6.70;;;1.90;;
53034;SDS011;38923;53.236;6.506;2022-08-01T01:50:45;8.68;;;2.15;;
53034;SDS011;38923;53.236;6.506;2022-08-01T01:53:12;9.80;;;1.98;;
53034;SDS011;38923;53.236;6.506;2022-08-01T01:55:41;8.82;;;2.03;;
53034;SDS011;38923;53.236;6.506;2022-08-01T01:58:09;4.45;;;1.85;;
53034;SDS011;38923;53.236;6.506;2022-08-01T02:00:38;4.35;;;2.22;;
53034;SDS011;38923;53.236;6.506;2022-08-01T02:03:08;6.65;;;1.90;;
53034;SDS011;38923;53.236;6.506;2022-08-01T02:05:36;4.63;;;1.48;;
53034;SDS011;38923;53.236;6.506;2022-08-01T02:08:03;7.22;;;1.98;;
53034;SDS011;38923;53.236;6.506;2022-08-01T02:10:31;6.80;;;1.90;;
53034;SDS011;38923;53.236;6.506;2022-08-01T02:12:57;5.68;;;1.95;;
53034;SDS011;38923;53.236;6.506;2022-08-01T02:15:26;8.27;;;2.50;;
53034;SDS011;38923;53.236;6.506;2022-08-01T02:17:54;8.27;;;2.70;;
53034;SDS011;38923;53.236;6.506;2022-08-01T02:20:22;16.85;;;4.05;;
53034;SDS011;38923;53.236;6.506;2022-08-01T02:22:50;12.50;;;3.13;;
53034;SDS011;38923;53.236;6.506;2022-08-01T02:25:30;14.18;;;3.58;;
53034;SDS011;38923;53.236;6.506;2022-08-01T02:28:00;19.38;;;4.03;;
53034;SDS011;38923;53.236;6.506;2022-08-01T02:30:31;15.45;;;4.13;;
53034;SDS011;38923;53.236;6.506;2022-08-01T02:33:15;10.15;;;3.33;;
53034;SDS011;38923;53.236;6.506;2022-08-01T02:35:43;10.23;;;3.72;;
53034;SDS011;38923;53.236;6.506;2022-08-01T02:38:13;18.15;;;4.45;;
53034;SDS011;38923;53.236;6.506;2022-08-01T02:40:41;20.13;;;4.05;;
53034;SDS011;38923;53.236;6.506;2022-08-01T02:43:10;14.57;;;4.30;;
53034;SDS011;38923;53.236;6.506;2022-08-01T02:45:39;14.32;;;3.88;;
53034;SDS011;38923;53.236;6.506;2022-08-01T02:48:11;13.27;;;4.10;;
53034;SDS011;38923;53.236;6.506;2022-08-01T02:50:39;21.80;;;3.85;;
53034;SDS011;38923;53.236;6.506;2022-08-01T02:53:09;12.20;;;3.97;;
53034;SDS011;38923;53.236;6.506;2022-08-01T02:55:40;8.75;;;3.50;;
53034;SDS011;38923;53.236;6.506;2022-08-01T02:58:08;10.32;;;3.97;;
53034;SDS011;38923;53.236;6.506;2022-08-01T03:00:36;9.77;;;3.80;;
53034;SDS011;38923;53.236;6.506;2022-08-01T03:03:05;14.60;;;4.22;;
53034;SDS011;38923;53.236;6.506;2022-08-01T03:05:32;12.10;;;3.65;;
53034;SDS011;38923;53.236;6.506;2022-08-01T03:07:59;9.32;;;3.28;;
53034;SDS011;38923;53.236;6.506;2022-08-01T03:10:29;15.05;;;3.53;;
53034;SDS011;38923;53.236;6.506;2022-08-01T03:12:57;10.75;;;3.13;;
53034;SDS011;38923;53.236;6.506;2022-08-01T03:15:25;21.58;;;3.58;;
53034;SDS011;38923;53.236;6.506;2022-08-01T03:17:53;12.20;;;4.50;;
53034;SDS011;38923;53.236;6.506;2022-08-01T03:20:21;12.60;;;3.55;;
53034;SDS011;38923;53.236;6.506;2022-08-01T03:22:49;16.58;;;3.70;;
53034;SDS011;38923;53.236;6.506;2022-08-01T03:25:18;16.13;;;4.00;;
53034;SDS011;38923;53.236;6.506;2022-08-01T03:27:45;12.38;;;3.60;;
53034;SDS011;38923;53.236;6.506;2022-08-01T03:30:16;14.38;;;3.72;;
53034;SDS011;38923;53.236;6.506;2022-08-01T03:32:42;11.63;;;4.30;;
53034;SDS011;38923;53.236;6.506;2022-08-01T03:35:08;15.38;;;4.32;;
53034;SDS011;38923;53.236;6.506;2022-08-01T03:37:36;11.88;;;3.88;;
53034;SDS011;38923;53.236;6.506;2022-08-01T03:42:40;15.43;;;4.07;;
53034;SDS011;38923;53.236;6.506;2022-08-01T03:45:10;12.23;;;3.90;;
53034;SDS011;38923;53.236;6.506;2022-08-01T03:47:48;18.55;;;4.38;;
53034;SDS011;38923;53.236;6.506;2022-08-01T03:50:19;11.65;;;3.63;;
53034;SDS011;38923;53.236;6.506;2022-08-01T03:52:47;19.02;;;4.72;;
53034;SDS011;38923;53.236;6.506;2022-08-01T03:55:16;14.55;;;3.80;;
53034;SDS011;38923;53.236;6.506;2022-08-01T03:57:44;12.05;;;3.33;;
53034;SDS011;38923;53.236;6.506;2022-08-01T04:00:11;14.52;;;3.83;;
53034;SDS011;38923;53.236;6.506;2022-08-01T04:02:37;10.48;;;3.58;;
53034;SDS011;38923;53.236;6.506;2022-08-01T04:05:04;11.90;;;3.95;;
53034;SDS011;38923;53.236;6.506;2022-08-01T04:07:31;19.23;;;4.05;;
53034;SDS011;38923;53.236;6.506;2022-08-01T04:09:57;13.55;;;3.72;;
53034;SDS011;38923;53.236;6.506;2022-08-01T04:12:23;11.77;;;3.60;;
53034;SDS011;38923;53.236;6.506;2022-08-01T04:14:49;16.90;;;3.75;;
53034;SDS011;38923;53.236;6.506;2022-08-01T04:17:15;12.32;;;3.58;;
53034;SDS011;38923;53.236;6.506;2022-08-01T04:19:42;12.98;;;3.60;;
53034;SDS011;38923;53.236;6.506;2022-08-01T04:22:10;14.85;;;3.72;;
53034;SDS011;38923;53.236;6.506;2022-08-01T04:24:38;15.15;;;3.70;;
53034;SDS011;38923;53.236;6.506;2022-08-01T04:27:08;16.23;;;3.70;;
53034;SDS011;38923;53.236;6.506;2022-08-01T04:29:38;14.48;;;3.55;;
53034;SDS011;38923;53.236;6.506;2022-08-01T04:32:05;12.27;;;3.63;;
53034;SDS011;38923;53.236;6.506;2022-08-01T04:34:34;11.25;;;4.43;;
53034;SDS011;38923;53.236;6.506;2022-08-01T04:37:05;16.30;;;3.90;;
53034;SDS011;38923;53.236;6.506;2022-08-01T04:39:34;17.85;;;3.80;;
53034;SDS011;38923;53.236;6.506;2022-08-01T04:42:02;10.57;;;3.67;;
53034;SDS011;38923;53.236;6.506;2022-08-01T04:44:30;17.30;;;4.22;;
53034;SDS011;38923;53.236;6.506;2022-08-01T04:46:58;28.10;;;4.00;;
53034;SDS011;38923;53.236;6.506;2022-08-01T04:49:26;17.45;;;3.25;;
53034;SDS011;38923;53.236;6.506;2022-08-01T04:51:53;21.00;;;3.58;;
53034;SDS011;38923;53.236;6.506;2022-08-01T04:54:24;19.85;;;3.50;;
53034;SDS011;38923;53.236;6.506;2022-08-01T04:56:54;23.25;;;3.60;;
53034;SDS011;38923;53.236;6.506;2022-08-01T04:59:24;19.25;;;3.63;;
53034;SDS011;38923;53.236;6.506;2022-08-01T05:02:13;22.42;;;3.70;;
53034;SDS011;38923;53.236;6.506;2022-08-01T05:04:41;19.33;;;3.38;;
53034;SDS011;38923;53.236;6.506;2022-08-01T05:07:07;24.35;;;4.25;;
53034;SDS011;38923;53.236;6.506;2022-08-01T05:09:33;17.42;;;3.08;;
53034;SDS011;38923;53.236;6.506;2022-08-01T05:12:01;18.08;;;3.50;;
53034;SDS011;38923;53.236;6.506;2022-08-01T05:14:29;23.48;;;3.17;;
53034;SDS011;38923;53.236;6.506;2022-08-01T05:16:58;17.27;;;3.63;;
53034;SDS011;38923;53.236;6.506;2022-08-01T05:19:25;20.92;;;3.80;;
53034;SDS011;38923;53.236;6.506;2022-08-01T05:21:52;16.92;;;3.83;;
53034;SDS011;38923;53.236;6.506;2022-08-01T05:24:17;23.42;;;3.25;;
53034;SDS011;38923;53.236;6.506;2022-08-01T05:26:43;18.98;;;3.80;;
53034;SDS011;38923;53.236;6.506;2022-08-01T05:29:09;20.80;;;3.72;;
53034;SDS011;38923;53.236;6.506;2022-08-01T05:31:34;17.35;;;3.25;;
53034;SDS011;38923;53.236;6.506;2022-08-01T05:34:01;17.10;;;3.38;;
53034;SDS011;38923;53.236;6.506;2022-08-01T05:36:27;16.67;;;3.30;;
53034;SDS011;38923;53.236;6.506;2022-08-01T05:38:53;18.50;;;3.60;;
53034;SDS011;38923;53.236;6.506;2022-08-01T05:41:19;23.98;;;3.85;;
53034;SDS011;38923;53.236;6.506;2022-08-01T05:43:45;16.60;;;3.40;;
53034;SDS011;38923;53.236;6.506;2022-08-01T05:46:11;23.67;;;3.42;;
53034;SDS011;38923;53.236;6.506;2022-08-01T05:48:37;20.27;;;3.42;;
53034;SDS011;38923;53.236;6.506;2022-08-01T05:51:03;21.58;;;4.10;;
53034;SDS011;38923;53.236;6.506;2022-08-01T05:53:28;20.33;;;3.58;;
53034;SDS011;38923;53.236;6.506;2022-08-01T05:55:54;20.23;;;3.50;;
53034;SDS011;38923;53.236;6.506;2022-08-01T05:58:20;18.52;;;2.78;;
53034;SDS011;38923;53.236;6.506;2022-08-01T06:00:46;23.08;;;3.20;;
53034;SDS011;38923;53.236;6.506;2022-08-01T06:03:12;14.20;;;2.80;;
53034;SDS011;38923;53.236;6.506;2022-08-01T06:05:39;15.20;;;3.03;;
53034;SDS011;38923;53.236;6.506;2022-08-01T06:08:05;21.63;;;3.17;;
53034;SDS011;38923;53.236;6.506;2022-08-01T06:10:31;15.73;;;2.78;;
53034;SDS011;38923;53.236;6.506;2022-08-01T06:12:56;18.05;;;3.58;;
53034;SDS011;38923;53.236;6.506;2022-08-01T06:15:22;17.48;;;3.70;;
53034;SDS011;38923;53.236;6.506;2022-08-01T06:17:48;15.25;;;2.60;;
53034;SDS011;38923;53.236;6.506;2022-08-01T06:20:14;19.63;;;3.80;;
53034;SDS011;38923;53.236;6.506;2022-08-01T06:22:40;12.98;;;3.40;;
53034;SDS011;38923;53.236;6.506;2022-08-01T06:25:06;18.77;;;3.22;;
53034;SDS011;38923;53.236;6.506;2022-08-01T06:27:35;18.55;;;3.50;;
53034;SDS011;38923;53.236;6.506;2022-08-01T06:30:02;19.33;;;3.53;;
53034;SDS011;38923;53.236;6.506;2022-08-01T06:32:29;22.80;;;2.88;;
53034;SDS011;38923;53.236;6.506;2022-08-01T06:34:56;15.20;;;2.55;;
53034;SDS011;38923;53.236;6.506;2022-08-01T06:37:22;11.20;;;3.17;;
53034;SDS011;38923;53.236;6.506;2022-08-01T06:39:48;23.02;;;3.28;;
53034;SDS011;38923;53.236;6.506;2022-08-01T06:42:14;17.65;;;3.45;;
53034;SDS011;38923;53.236;6.506;2022-08-01T06:44:40;14.75;;;3.17;;
53034;SDS011;38923;53.236;6.506;2022-08-01T06:47:06;18.00;;;3.22;;
53034;SDS011;38923;53.236;6.506;2022-08-01T06:49:32;17.27;;;2.58;;
53034;SDS011;38923;53.236;6.506;2022-08-01T06:51:57;19.67;;;3.17;;
53034;SDS011;38923;53.236;6.506;2022-08-01T06:54:23;14.75;;;2.35;;
53034;SDS011;38923;53.236;6.506;2022-08-01T06:56:49;12.63;;;2.17;;
53034;SDS011;38923;53.236;6.506;2022-08-01T06:59:15;18.15;;;2.90;;
53034;SDS011;38923;53.236;6.506;2022-08-01T07:01:40;19.23;;;3.67;;
53034;SDS011;38923;53.236;6.506;2022-08-01T07:04:06;12.82;;;2.50;;
53034;SDS011;38923;53.236;6.506;2022-08-01T07:06:32;16.02;;;2.25;;
53034;SDS011;38923;53.236;6.506;2022-08-01T07:08:57;17.85;;;2.88;;
53034;SDS011;38923;53.236;6.506;2022-08-01T07:11:25;16.25;;;2.55;;
53034;SDS011;38923;53.236;6.506;2022-08-01T07:13:51;11.30;;;3.47;;
53034;SDS011;38923;53.236;6.506;2022-08-01T07:16:16;14.70;;;2.65;;
53034;SDS011;38923;53.236;6.506;2022-08-01T07:18:42;18.08;;;2.15;;
53034;SDS011;38923;53.236;6.506;2022-08-01T07:21:08;17.25;;;2.50;;
53034;SDS011;38923;53.236;6.506;2022-08-01T07:23:34;17.20;;;2.58;;
53034;SDS011;38923;53.236;6.506;2022-08-01T07:26:00;11.60;;;2.15;;
53034;SDS011;38923;53.236;6.506;2022-08-01T07:28:27;17.08;;;2.40;;
53034;SDS011;38923;53.236;6.506;2022-08-01T07:30:53;16.80;;;2.28;;
53034;SDS011;38923;53.236;6.506;2022-08-01T07:33:19;9.82;;;2.10;;
53034;SDS011;38923;53.236;6.506;2022-08-01T07:35:45;15.95;;;2.20;;
53034;SDS011;38923;53.236;6.506;2022-08-01T07:38:10;19.40;;;2.22;;
53034;SDS011;38923;53.236;6.506;2022-08-01T07:40:36;9.98;;;1.85;;
53034;SDS011;38923;53.236;6.506;2022-08-01T07:43:02;14.77;;;2.08;;
53034;SDS011;38923;53.236;6.506;2022-08-01T07:45:28;12.32;;;1.75;;
53034;SDS011;38923;53.236;6.506;2022-08-01T07:47:54;13.30;;;1.95;;
53034;SDS011;38923;53.236;6.506;2022-08-01T07:50:20;18.92;;;2.22;;
53034;SDS011;38923;53.236;6.506;2022-08-01T07:52:47;13.10;;;2.10;;
53034;SDS011;38923;53.236;6.506;2022-08-01T07:55:13;15.00;;;1.90;;
53034;SDS011;38923;53.236;6.506;2022-08-01T07:57:38;10.20;;;1.63;;
53034;SDS011;38923;53.236;6.506;2022-08-01T08:00:05;9.35;;;1.80;;
53034;SDS011;38923;53.236;6.506;2022-08-01T08:02:33;12.27;;;2.17;;
53034;SDS011;38923;53.236;6.506;2022-08-01T08:04:58;13.90;;;2.08;;
53034;SDS011;38923;53.236;6.506;2022-08-01T08:07:24;11.25;;;2.08;;
53034;SDS011;38923;53.236;6.506;2022-08-01T08:09:50;7.28;;;1.63;;
53034;SDS011;38923;53.236;6.506;2022-08-01T08:12:15;9.30;;;1.88;;
53034;SDS011;38923;53.236;6.506;2022-08-01T08:14:41;6.55;;;1.40;;
53034;SDS011;38923;53.236;6.506;2022-08-01T08:17:06;11.65;;;1.58;;
53034;SDS011;38923;53.236;6.506;2022-08-01T08:19:32;14.73;;;1.95;;
53034;SDS011;38923;53.236;6.506;2022-08-01T08:22:01;15.30;;;2.22;;
53034;SDS011;38923;53.236;6.506;2022-08-01T08:24:27;10.82;;;1.98;;
53034;SDS011;38923;53.236;6.506;2022-08-01T08:26:54;13.93;;;1.60;;
53034;SDS011;38923;53.236;6.506;2022-08-01T08:29:21;15.30;;;2.55;;
53034;SDS011;38923;53.236;6.506;2022-08-01T08:31:48;9.20;;;1.98;;
53034;SDS011;38923;53.236;6.506;2022-08-01T08:34:14;9.60;;;2.08;;
53034;SDS011;38923;53.236;6.506;2022-08-01T08:36:40;12.93;;;1.77;;
53034;SDS011;38923;53.236;6.506;2022-08-01T08:39:06;8.93;;;1.50;;
53034;SDS011;38923;53.236;6.506;2022-08-01T08:41:35;6.38;;;1.58;;
53034;SDS011;38923;53.236;6.506;2022-08-01T08:44:02;12.07;;;2.05;;
53034;SDS011;38923;53.236;6.506;2022-08-01T08:46:32;14.52;;;2.15;;
53034;SDS011;38923;53.236;6.506;2022-08-01T08:48:59;8.35;;;1.95;;
53034;SDS011;38923;53.236;6.506;2022-08-01T08:51:27;16.90;;;2.17;;
53034;SDS011;38923;53.236;6.506;2022-08-01T08:53:56;8.70;;;1.50;;
53034;SDS011;38923;53.236;6.506;2022-08-01T08:56:23;16.67;;;1.88;;
53034;SDS011;38923;53.236;6.506;2022-08-01T08:58:50;15.15;;;1.48;;
53034;SDS011;38923;53.236;6.506;2022-08-01T09:01:17;11.07;;;1.45;;
53034;SDS011;38923;53.236;6.506;2022-08-01T09:03:45;10.20;;;1.50;;
53034;SDS011;38923;53.236;6.506;2022-08-01T09:06:12;11.85;;;1.55;;
53034;SDS011;38923;53.236;6.506;2022-08-01T09:08:39;10.32;;;1.60;;
53034;SDS011;38923;53.236;6.506;2022-08-01T09:11:08;9.77;;;1.67;;
53034;SDS011;38923;53.236;6.506;2022-08-01T09:13:33;10.50;;;1.73;;
53034;SDS011;38923;53.236;6.506;2022-08-01T09:15:59;9.65;;;1.30;;
53034;SDS011;38923;53.236;6.506;2022-08-01T09:23:41;12.32;;;1.70;;
53034;SDS011;38923;53.236;6.506;2022-08-01T09:26:13;7.05;;;1.52;;
53034;SDS011;38923;53.236;6.506;2022-08-01T09:28:43;6.65;;;1.40;;
53034;SDS011;38923;53.236;6.506;2022-08-01T09:31:14;7.25;;;1.30;;
53034;SDS011;38923;53.236;6.506;2022-08-01T09:33:53;12.27;;;1.48;;
53034;SDS011;38923;53.236;6.506;2022-08-01T09:36:24;11.70;;;1.80;;
53034;SDS011;38923;53.236;6.506;2022-08-01T09:38:52;8.98;;;1.67;;
53034;SDS011;38923;53.236;6.506;2022-08-01T09:41:29;12.15;;;1.65;;
53034;SDS011;38923;53.236;6.506;2022-08-01T09:43:56;12.57;;;2.03;;
53034;SDS011;38923;53.236;6.506;2022-08-01T09:46:22;8.15;;;1.38;;
53034;SDS011;38923;53.236;6.506;2022-08-01T09:51:32;9.43;;;1.40;;
53034;SDS011;38923;53.236;6.506;2022-08-01T09:54:00;13.15;;;1.60;;
53034;SDS011;38923;53.236;6.506;2022-08-01T09:56:35;9.07;;;1.35;;
53034;SDS011;38923;53.236;6.506;2022-08-01T09:59:02;13.95;;;1.70;;
53034;SDS011;38923;53.236;6.506;2022-08-01T10:01:40;9.45;;;1.40;;
53034;SDS011;38923;53.236;6.506;2022-08-01T10:06:45;10.70;;;1.40;;
53034;SDS011;38923;53.236;6.506;2022-08-01T10:09:27;13.25;;;1.35;;
53034;SDS011;38923;53.236;6.506;2022-08-01T10:11:54;8.35;;;1.20;;
53034;SDS011;38923;53.236;6.506;2022-08-01T10:14:22;6.88;;;1.30;;
53034;SDS011;38923;53.236;6.506;2022-08-01T10:16:50;7.72;;;1.40;;
53034;SDS011;38923;53.236;6.506;2022-08-01T10:19:18;7.88;;;1.23;;
53034;SDS011;38923;53.236;6.506;2022-08-01T10:21:48;12.13;;;1.30;;
53034;SDS011;38923;53.236;6.506;2022-08-01T10:24:18;6.72;;;1.30;;
53034;SDS011;38923;53.236;6.506;2022-08-01T10:26:48;7.65;;;1.65;;
53034;SDS011;38923;53.236;6.506;2022-08-01T10:29:20;6.07;;;1.00;;
53034;SDS011;38923;53.236;6.506;2022-08-01T10:31:46;12.95;;;1.70;;
53034;SDS011;38923;53.236;6.506;2022-08-01T10:34:13;9.43;;;1.50;;
53034;SDS011;38923;53.236;6.506;2022-08-01T10:36:42;8.75;;;1.23;;
53034;SDS011;38923;53.236;6.506;2022-08-01T10:39:12;9.73;;;1.30;;
53034;SDS011;38923;53.236;6.506;2022-08-01T10:41:38;14.05;;;1.58;;
53034;SDS011;38923;53.236;6.506;2022-08-01T10:44:08;11.57;;;1.42;;
53034;SDS011;38923;53.236;6.506;2022-08-01T10:46:34;16.80;;;1.90;;
53034;SDS011;38923;53.236;6.506;2022-08-01T10:49:13;8.25;;;1.17;;
53034;SDS011;38923;53.236;6.506;2022-08-01T10:51:41;12.88;;;1.30;;
53034;SDS011;38923;53.236;6.506;2022-08-01T10:54:10;7.30;;;1.42;;
53034;SDS011;38923;53.236;6.506;2022-08-01T10:56:44;10.75;;;1.73;;
53034;SDS011;38923;53.236;6.506;2022-08-01T10:59:23;14.05;;;1.48;;
53034;SDS011;38923;53.236;6.506;2022-08-01T11:02:00;5.72;;;1.08;;
53034;SDS011;38923;53.236;6.506;2022-08-01T11:07:46;9.57;;;1.38;;
53034;SDS011;38923;53.236;6.506;2022-08-01T11:10:19;9.82;;;1.45;;
53034;SDS011;38923;53.236;6.506;2022-08-01T11:12:45;7.00;;;1.38;;
53034;SDS011;38923;53.236;6.506;2022-08-01T11:17:37;5.97;;;1.10;;
53034;SDS011;38923;53.236;6.506;2022-08-01T11:20:16;6.63;;;1.02;;
53034;SDS011;38923;53.236;6.506;2022-08-01T11:30:39;9.70;;;1.17;;
53034;SDS011;38923;53.236;6.506;2022-08-01T11:33:06;6.07;;;1.10;;
53034;SDS011;38923;53.236;6.506;2022-08-01T11:35:32;7.72;;;1.20;;
53034;SDS011;38923;53.236;6.506;2022-08-01T11:52:10;4.95;;;1.02;;
53034;SDS011;38923;53.236;6.506;2022-08-01T11:54:38;8.77;;;1.10;;
53034;SDS011;38923;53.236;6.506;2022-08-01T11:57:31;5.93;;;1.10;;
53034;SDS011;38923;53.236;6.506;2022-08-01T12:00:15;8.02;;;1.20;;
53034;SDS011;38923;53.236;6.506;2022-08-01T12:02:43;7.50;;;1.02;;
53034;SDS011;38923;53.236;6.506;2022-08-01T12:05:10;8.55;;;1.10;;
53034;SDS011;38923;53.236;6.506;2022-08-01T12:07:38;9.23;;;1.20;;
53034;SDS011;38923;53.236;6.506;2022-08-01T12:10:10;7.45;;;0.80;;
53034;SDS011;38923;53.236;6.506;2022-08-01T12:12:48;6.55;;;1.10;;
53034;SDS011;38923;53.236;6.506;2022-08-01T12:15:15;7.05;;;1.00;;
53034;SDS011;38923;53.236;6.506;2022-08-01T12:17:42;9.50;;;1.40;;
53034;SDS011;38923;53.236;6.506;2022-08-01T12:20:11;21.17;;;1.80;;
53034;SDS011;38923;53.236;6.506;2022-08-01T12:22:39;7.30;;;1.30;;
53034;SDS011;38923;53.236;6.506;2022-08-01T12:25:15;8.75;;;1.20;;
53034;SDS011;38923;53.236;6.506;2022-08-01T12:27:43;4.68;;;1.08;;
53034;SDS011;38923;53.236;6.506;2022-08-01T12:30:14;6.97;;;1.67;;
53034;SDS011;38923;53.236;6.506;2022-08-01T12:32:47;9.20;;;1.35;;
53034;SDS011;38923;53.236;6.506;2022-08-01T12:35:14;5.93;;;0.80;;
53034;SDS011;38923;53.236;6.506;2022-08-01T12:37:45;5.50;;;1.15;;
53034;SDS011;38923;53.236;6.506;2022-08-01T12:40:14;7.57;;;0.95;;
53034;SDS011;38923;53.236;6.506;2022-08-01T12:42:42;8.00;;;0.98;;
53034;SDS011;38923;53.236;6.506;2022-08-01T12:45:10;5.63;;;1.25;;
53034;SDS011;38923;53.236;6.506;2022-08-01T12:47:50;7.05;;;1.02;;
53034;SDS011;38923;53.236;6.506;2022-08-01T12:50:18;12.52;;;1.10;;
53034;SDS011;38923;53.236;6.506;2022-08-01T12:52:48;7.13;;;1.05;;
53034;SDS011;38923;53.236;6.506;2022-08-01T12:55:19;9.50;;;1.10;;
53034;SDS011;38923;53.236;6.506;2022-08-01T12:57:46;6.03;;;0.85;;
53034;SDS011;38923;53.236;6.506;2022-08-01T13:00:29;6.78;;;1.00;;
53034;SDS011;38923;53.236;6.506;2022-08-01T13:05:27;9.77;;;1.65;;
53034;SDS011;38923;53.236;6.506;2022-08-01T13:07:53;8.30;;;1.10;;
53034;SDS011;38923;53.236;6.506;2022-08-01T13:10:27;12.75;;;1.02;;
53034;SDS011;38923;53.236;6.506;2022-08-01T13:12:56;11.38;;;1.08;;
53034;SDS011;38923;53.236;6.506;2022-08-01T13:15:27;9.60;;;1.25;;
53034;SDS011;38923;53.236;6.506;2022-08-01T13:17:59;7.47;;;1.23;;
53034;SDS011;38923;53.236;6.506;2022-08-01T13:20:32;9.80;;;1.30;;
53034;SDS011;38923;53.236;6.506;2022-08-01T13:23:15;7.43;;;1.05;;
53034;SDS011;38923;53.236;6.506;2022-08-01T13:28:18;4.30;;;1.20;;
53034;SDS011;38923;53.236;6.506;2022-08-01T13:30:52;5.00;;;1.00;;
53034;SDS011;38923;53.236;6.506;2022-08-01T13:33:27;6.93;;;1.00;;
53034;SDS011;38923;53.236;6.506;2022-08-01T13:36:05;9.23;;;1.52;;
53034;SDS011;38923;53.236;6.506;2022-08-01T13:38:31;8.50;;;0.98;;
53034;SDS011;38923;53.236;6.506;2022-08-01T13:41:15;5.90;;;1.08;;
53034;SDS011;38923;53.236;6.506;2022-08-01T13:43:41;7.85;;;1.50;;
53034;SDS011;38923;53.236;6.506;2022-08-01T13:46:07;8.98;;;1.00;;
53034;SDS011;38923;53.236;6.506;2022-08-01T13:48:32;8.80;;;1.10;;
53034;SDS011;38923;53.236;6.506;2022-08-01T13:50:58;6.55;;;1.10;;
53034;SDS011;38923;53.236;6.506;2022-08-01T13:53:24;5.85;;;1.10;;
53034;SDS011;38923;53.236;6.506;2022-08-01T13:55:51;4.03;;;0.90;;
53034;SDS011;38923;53.236;6.506;2022-08-01T13:58:16;8.30;;;1.10;;
53034;SDS011;38923;53.236;6.506;2022-08-01T14:00:42;8.20;;;1.13;;
53034;SDS011;38923;53.236;6.506;2022-08-01T14:03:08;9.35;;;1.20;;
53034;SDS011;38923;53.236;6.506;2022-08-01T14:05:35;6.88;;;1.23;;
53034;SDS011;38923;53.236;6.506;2022-08-01T14:08:02;6.68;;;1.00;;
53034;SDS011;38923;53.236;6.506;2022-08-01T14:10:28;7.20;;;1.35;;
53034;SDS011;38923;53.236;6.506;2022-08-01T14:12:57;6.47;;;1.27;;
53034;SDS011;38923;53.236;6.506;2022-08-01T14:15:23;12.35;;;1.45;;
53034;SDS011;38923;53.236;6.506;2022-08-01T14:17:49;6.35;;;1.00;;
53034;SDS011;38923;53.236;6.506;2022-08-01T14:20:16;6.10;;;1.63;;
53034;SDS011;38923;53.236;6.506;2022-08-01T14:22:45;9.30;;;1.27;;
53034;SDS011;38923;53.236;6.506;2022-08-01T14:25:11;6.85;;;1.40;;
53034;SDS011;38923;53.236;6.506;2022-08-01T14:27:37;9.88;;;1.35;;
53034;SDS011;38923;53.236;6.506;2022-08-01T14:30:05;5.55;;;1.27;;
53034;SDS011;38923;53.236;6.506;2022-08-01T14:32:31;5.88;;;1.45;;
53034;SDS011;38923;53.236;6.506;2022-08-01T14:34:58;9.27;;;1.88;;
53034;SDS011;38923;53.236;6.506;2022-08-01T14:37:25;6.43;;;1.40;;
53034;SDS011;38923;53.236;6.506;2022-08-01T14:39:51;4.57;;;1.00;;
53034;SDS011;38923;53.236;6.506;2022-08-01T14:42:16;5.18;;;1.65;;
53034;SDS011;38923;53.236;6.506;2022-08-01T14:44:42;4.72;;;1.00;;
53034;SDS011;38923;53.236;6.506;2022-08-01T14:47:08;7.63;;;1.20;;
53034;SDS011;38923;53.236;6.506;2022-08-01T14:49:33;6.32;;;1.08;;
53034;SDS011;38923;53.236;6.506;2022-08-01T14:51:59;10.57;;;1.40;;
53034;SDS011;38923;53.236;6.506;2022-08-01T14:54:25;8.13;;;1.13;;
53034;SDS011;38923;53.236;6.506;2022-08-01T14:56:51;4.72;;;1.00;;
53034;SDS011;38923;53.236;6.506;2022-08-01T14:59:18;7.90;;;1.38;;
53034;SDS011;38923;53.236;6.506;2022-08-01T15:01:44;11.35;;;1.50;;
53034;SDS011;38923;53.236;6.506;2022-08-01T15:04:10;9.82;;;1.83;;
53034;SDS011;38923;53.236;6.506;2022-08-01T15:06:36;8.27;;;1.38;;
53034;SDS011;38923;53.236;6.506;2022-08-01T15:09:02;14.57;;;1.60;;
53034;SDS011;38923;53.236;6.506;2022-08-01T15:11:28;9.98;;;1.58;;
53034;SDS011;38923;53.236;6.506;2022-08-01T15:13:54;7.05;;;1.45;;
53034;SDS011;38923;53.236;6.506;2022-08-01T15:16:38;11.63;;;2.13;;
53034;SDS011;38923;53.236;6.506;2022-08-01T15:19:03;6.57;;;1.35;;
53034;SDS011;38923;53.236;6.506;2022-08-01T15:21:29;9.88;;;1.10;;
53034;SDS011;38923;53.236;6.506;2022-08-01T15:23:55;11.60;;;1.40;;
53034;SDS011;38923;53.236;6.506;2022-08-01T15:26:21;6.80;;;1.10;;
53034;SDS011;38923;53.236;6.506;2022-08-01T15:28:46;8.57;;;1.73;;
53034;SDS011;38923;53.236;6.506;2022-08-01T15:31:12;5.85;;;1.10;;
53034;SDS011;38923;53.236;6.506;2022-08-01T15:33:38;12.18;;;4.82;;
53034;SDS011;38923;53.236;6.506;2022-08-01T15:36:04;22.38;;;8.73;;
53034;SDS011;38923;53.236;6.506;2022-08-01T15:38:29;8.00;;;1.48;;
53034;SDS011;38923;53.236;6.506;2022-08-01T15:40:55;12.05;;;1.92;;
53034;SDS011;38923;53.236;6.506;2022-08-01T15:43:21;8.68;;;1.70;;